Terminal Aerodrome Forecast
Issued by NWS Louisville, KY

Home | Current Version | Previous Version | Text Only | Print | Product List | Glossary On
Versions: 1 2 3 4 5 6 7 8 9 10 11 12 13 14 15 16 17 18 19 20 21 22
135
FTUS43 KLMK 171123
TAFBWG
TAF
KBWG 171123Z 1712/1812 21005KT P6SM FEW250 WS019/27039KT
     FM171400 22011G17KT P6SM FEW250
     FM172300 20005KT P6SM SCT250=

USA.gov is the U.S. government's official web portal to all federal, state and local government web resources and services.